createdAt,value
2024-02-10T00:03:55.288Z,1.7
2024-02-10T00:09:02.592Z,1.7
2024-02-10T00:14:09.914Z,2
2024-02-10T00:19:17.419Z,1.9
2024-02-10T00:24:24.675Z,1.8
2024-02-10T00:29:33.048Z,1.7
2024-02-10T00:34:39.385Z,1.9
2024-02-10T00:39:46.707Z,1.6
2024-02-10T00:44:54.078Z,1.5
2024-02-10T00:50:01.562Z,1.5
2024-02-10T00:55:08.801Z,1.3
2024-02-10T01:00:16.131Z,1.2
2024-02-10T01:05:23.528Z,1.5
2024-02-10T01:10:30.873Z,1.3
2024-02-10T01:15:38.213Z,1.3
2024-02-10T01:25:52.942Z,1.4
2024-02-10T01:31:00.287Z,1.4
2024-02-10T01:36:07.621Z,1.5
2024-02-10T01:41:15.007Z,1.6
2024-02-10T01:46:22.427Z,1.5
2024-02-10T01:51:29.738Z,1.2
2024-02-10T01:56:37.034Z,1.3
2024-02-10T02:01:44.437Z,1.3
2024-02-10T02:06:51.757Z,1.4
2024-02-10T02:11:59.109Z,1.6
2024-02-10T02:17:06.460Z,1.5
2024-02-10T02:22:13.841Z,1.7
2024-02-10T02:27:21.173Z,1.7
2024-02-10T02:32:28.576Z,1.7
2024-02-10T02:37:35.916Z,1.8
2024-02-10T02:42:43.264Z,1.9
2024-02-10T02:47:50.701Z,1.7
2024-02-10T02:52:58.009Z,1.5
2024-02-10T02:58:05.319Z,1.6
2024-02-10T03:03:12.720Z,1.6
2024-02-10T03:08:20.044Z,1.7
2024-02-10T03:13:27.398Z,1.7
2024-02-10T03:18:34.792Z,1.9
2024-02-10T03:23:42.093Z,2
2024-02-10T03:28:49.544Z,1.7
2024-02-10T03:33:56.945Z,1.6
2024-02-10T03:39:04.155Z,1.5
2024-02-10T03:44:11.639Z,2.1
2024-02-10T03:49:18.946Z,1.8
2024-02-10T03:54:26.241Z,1.8
2024-02-10T03:59:33.615Z,2
2024-02-10T04:04:41.039Z,1.8
2024-02-10T04:09:48.319Z,1.7
2024-02-10T04:14:55.675Z,1.8
2024-02-10T04:20:03.132Z,1.6
2024-02-10T04:25:10.364Z,1.6
2024-02-10T04:30:17.733Z,1.7
2024-02-10T04:35:25.099Z,1.8
2024-02-10T04:40:32.458Z,1.9
2024-02-10T04:45:39.836Z,1.8
2024-02-10T04:50:47.190Z,1.8
2024-02-10T04:55:54.603Z,1.8
2024-02-10T05:03:13.673Z,1.8
2024-02-10T05:08:20.993Z,1.7
2024-02-10T05:13:28.303Z,1.8
2024-02-10T05:18:35.762Z,2
2024-02-10T05:23:43.036Z,2
2024-02-10T05:28:50.405Z,1.9
2024-02-10T05:33:57.791Z,2.1
2024-02-10T05:39:05.114Z,2.1
2024-02-10T05:44:12.449Z,2.2
2024-02-10T05:49:19.820Z,2.2
2024-02-10T05:54:27.153Z,2.3
2024-02-10T06:04:41.960Z,2.2
2024-02-10T06:09:49.242Z,2.3
2024-02-10T06:14:56.610Z,2.3
2024-02-10T06:20:04.019Z,2.3
2024-02-10T06:25:11.325Z,2.2
2024-02-10T06:30:18.701Z,2.1
2024-02-10T06:35:26.068Z,2.3
2024-02-10T06:40:33.387Z,2.3
2024-02-10T06:45:40.716Z,2.2
2024-02-10T06:50:48.064Z,2.1
2024-02-10T06:55:55.479Z,2.2
2024-02-10T07:01:02.822Z,2.3
2024-02-10T07:06:10.181Z,2.3
2024-02-10T07:11:17.519Z,2.3
2024-02-10T07:16:24.870Z,2.3
2024-02-10T07:21:32.246Z,2.3
2024-02-10T07:26:39.601Z,2.4
2024-02-10T07:31:46.979Z,2.5
2024-02-10T07:36:54.287Z,2.6
2024-02-10T07:42:01.660Z,2.7
2024-02-10T07:47:09.054Z,2.8
2024-02-10T07:52:16.399Z,2.7
2024-02-10T07:57:23.750Z,2.9
2024-02-10T08:02:31.066Z,3
2024-02-10T08:07:38.409Z,3.1
2024-02-10T08:12:45.781Z,3.3
2024-02-10T08:17:53.179Z,3.6
2024-02-10T08:23:00.700Z,4.2
2024-02-10T08:28:07.877Z,4.8
2024-02-10T08:33:15.325Z,5.5
2024-02-10T08:38:22.559Z,5.5
2024-02-10T08:43:29.940Z,5.2
2024-02-10T08:48:37.323Z,5
2024-02-10T08:53:44.655Z,5
2024-02-10T08:58:52.149Z,5
2024-02-10T09:03:59.408Z,5.1
2024-02-10T09:09:06.717Z,5.1
2024-02-10T09:14:14.070Z,5.2
2024-02-10T09:19:21.462Z,5.4
2024-02-10T09:24:28.827Z,5.4
2024-02-10T09:29:36.150Z,5.4
2024-02-10T09:34:43.524Z,5.6
2024-02-10T09:39:50.834Z,5.7
2024-02-10T09:44:58.182Z,5.4
2024-02-10T09:50:05.578Z,5.8
2024-02-10T09:55:12.922Z,5.8
2024-02-10T10:00:20.297Z,5.8
2024-02-10T10:05:27.745Z,6.1
2024-02-10T10:10:35.015Z,5.5
2024-02-10T10:15:42.360Z,5.7
2024-02-10T10:20:49.698Z,5.9
2024-02-10T10:25:57.101Z,6
2024-02-10T10:31:04.419Z,6.1
2024-02-10T10:36:11.816Z,6.3
2024-02-10T10:41:19.108Z,6.7
2024-02-10T10:46:26.472Z,6.9
2024-02-10T10:51:33.842Z,6.5
2024-02-10T10:56:41.191Z,7
2024-02-10T11:01:48.623Z,6.8
2024-02-10T11:06:55.915Z,6.8
2024-02-10T11:12:03.273Z,6.4
2024-02-10T11:17:10.744Z,6.6
2024-02-10T11:22:18.106Z,6.8
2024-02-10T11:27:25.430Z,7.2
2024-02-10T11:32:32.851Z,6.4
2024-02-10T11:37:40.224Z,6.5
2024-02-10T11:42:47.514Z,6.7
2024-02-10T11:47:55.003Z,6.6
2024-02-10T11:53:02.281Z,6.8
2024-02-10T11:58:09.631Z,6.3
2024-02-10T12:03:17.007Z,6.3
2024-02-10T12:08:24.283Z,7.1
2024-02-10T12:13:31.695Z,7.4
2024-02-10T12:18:39.089Z,7.3
2024-02-10T12:23:46.393Z,7.6
2024-02-10T12:28:53.747Z,7.6
2024-02-10T12:34:01.130Z,7.3
2024-02-10T12:39:08.434Z,6.8
2024-02-10T12:44:15.938Z,6.9
2024-02-10T12:49:23.257Z,7
2024-02-10T12:59:37.866Z,6.6
2024-02-10T13:04:45.306Z,6.4
2024-02-10T13:09:52.595Z,6.1
2024-02-10T13:15:00.053Z,6.6
2024-02-10T13:20:07.375Z,7.2
2024-02-10T13:25:14.821Z,7
2024-02-10T13:30:21.989Z,7
2024-02-10T13:35:29.523Z,6.9
2024-02-10T13:40:36.760Z,6.7
2024-02-10T13:45:44.083Z,6.6
2024-02-10T13:50:51.433Z,6.8
2024-02-10T13:55:58.858Z,7
2024-02-10T14:01:06.212Z,7
2024-02-10T14:06:13.563Z,6.8
2024-02-10T14:11:21.482Z,6.9
2024-02-10T14:16:28.280Z,7.1
2024-02-10T14:21:35.920Z,7.3
2024-02-10T14:26:43.157Z,7.3
2024-02-10T14:31:50.350Z,7.2
2024-02-10T14:36:57.663Z,7
2024-02-10T14:42:04.996Z,6.7
2024-02-10T14:47:12.493Z,6.5
2024-02-10T14:52:19.744Z,6.3
2024-02-10T14:57:27.062Z,6.3
2024-02-10T15:02:34.407Z,6.4
2024-02-10T15:07:41.874Z,6.4
2024-02-10T15:12:49.150Z,6.3
2024-02-10T15:17:56.549Z,5.9
2024-02-10T15:23:03.931Z,5.8
2024-02-10T15:28:11.197Z,5.5
2024-02-10T15:33:18.616Z,5.3
2024-02-10T15:38:25.932Z,5.3
2024-02-10T15:43:33.277Z,5
2024-02-10T15:48:40.686Z,5
2024-02-10T15:53:48.011Z,5
2024-02-10T15:58:55.669Z,5
2024-02-10T16:04:02.734Z,4.8
2024-02-10T16:09:10.084Z,4.7
2024-02-10T16:14:17.468Z,4.3
2024-02-10T16:19:24.932Z,4.2
2024-02-10T16:24:32.136Z,4.1
2024-02-10T16:29:39.466Z,4
2024-02-10T16:34:46.921Z,3.8
2024-02-10T16:39:54.188Z,3.9
2024-02-10T16:45:01.594Z,4
2024-02-10T16:50:08.926Z,4.2
2024-02-10T16:55:16.292Z,4
2024-02-10T17:00:23.658Z,3.8
2024-02-10T17:05:31.089Z,4
2024-02-10T17:10:38.435Z,4.1
2024-02-10T17:15:45.718Z,4.1
2024-02-10T17:20:53.064Z,4.1
2024-02-10T17:26:00.457Z,3.8
2024-02-10T17:31:07.756Z,3.5
2024-02-10T17:36:15.106Z,3.6
2024-02-10T17:41:22.677Z,3.7
2024-02-10T17:46:29.922Z,3.5
2024-02-10T17:51:37.207Z,3.4
2024-02-10T17:56:44.538Z,3.4
2024-02-10T18:01:51.948Z,3.4
2024-02-10T18:06:59.275Z,3.3
2024-02-10T18:12:06.668Z,3.2
2024-02-10T18:17:14.086Z,3.2
2024-02-10T18:22:21.349Z,3
2024-02-10T18:27:28.705Z,2.9
2024-02-10T18:32:36.085Z,2.8
2024-02-10T18:37:43.404Z,2.8
2024-02-10T18:42:50.768Z,2.7
2024-02-10T18:47:58.251Z,2.6
2024-02-10T18:53:05.530Z,2.6
2024-02-10T18:58:12.912Z,2.7
2024-02-10T19:03:20.207Z,2.7
2024-02-10T19:08:27.558Z,2.8
2024-02-10T19:13:34.951Z,2.7
2024-02-10T19:18:42.273Z,2.6
2024-02-10T19:23:49.886Z,2.6
2024-02-10T19:28:56.986Z,2.6
2024-02-10T19:34:04.414Z,2.6
2024-02-10T19:39:11.710Z,2.7
2024-02-10T19:44:19.043Z,2.8
2024-02-10T19:49:26.419Z,2.7
2024-02-10T19:54:33.786Z,2.8
2024-02-10T19:59:41.110Z,2.8
2024-02-10T20:04:48.533Z,2.8
2024-02-10T20:09:55.835Z,2.7
2024-02-10T20:15:03.250Z,2.6
2024-02-10T20:20:10.663Z,2.5
2024-02-10T20:25:17.883Z,2.5
2024-02-10T20:30:25.278Z,2.5
2024-02-10T20:35:32.627Z,2.5
2024-02-10T20:40:40.001Z,2.7
2024-02-10T20:45:47.323Z,2.9
2024-02-10T20:50:54.689Z,2.9
2024-02-10T20:56:02.036Z,2.7
2024-02-10T21:01:09.389Z,2.5
2024-02-10T21:06:16.836Z,2.3
2024-02-10T21:11:24.072Z,2.2
2024-02-10T21:16:31.492Z,2.1
2024-02-10T21:21:38.819Z,2.1
2024-02-10T21:26:46.196Z,2.2
2024-02-10T21:31:53.538Z,2.2
2024-02-10T21:37:00.864Z,2.3
2024-02-10T21:42:08.227Z,2.3
2024-02-10T21:47:15.583Z,2.3
2024-02-10T21:52:22.924Z,2.2
2024-02-10T21:57:30.291Z,2.3
2024-02-10T22:02:37.652Z,2.4
2024-02-10T22:09:56.727Z,2.3
2024-02-10T22:15:04.094Z,2.3
2024-02-10T22:20:11.532Z,2.3
2024-02-10T22:25:18.778Z,2.3
2024-02-10T22:30:26.157Z,2.1
2024-02-10T22:35:33.532Z,2
2024-02-10T22:40:40.880Z,1.9
2024-02-10T22:50:55.609Z,1.8
2024-02-10T22:56:02.977Z,1.8
2024-02-10T23:01:10.339Z,1.8
2024-02-10T23:06:17.699Z,2
2024-02-10T23:11:25.033Z,2
2024-02-10T23:16:32.389Z,1.7
2024-02-10T23:21:39.759Z,1.7
2024-02-10T23:26:47.083Z,1.7
2024-02-10T23:31:54.536Z,1.7
2024-02-10T23:37:01.814Z,1.7
2024-02-10T23:42:09.152Z,1.6
2024-02-10T23:47:16.487Z,1.6
2024-02-10T23:52:23.885Z,1.5
2024-02-10T23:57:31.234Z,1.3
